createdAt,value
2023-03-03T00:01:26.485Z,-0.90
2023-03-03T00:03:55.512Z,-0.90
2023-03-03T00:06:24.586Z,-0.90
2023-03-03T00:08:54.192Z,-0.90
2023-03-03T00:11:22.774Z,-0.90
2023-03-03T00:13:54.402Z,-0.90
2023-03-03T00:16:26.361Z,-0.90
2023-03-03T00:18:56.034Z,-0.90
2023-03-03T00:21:29.413Z,-0.90
2023-03-03T00:24:20.182Z,-0.90
2023-03-03T00:26:50.468Z,-0.80
2023-03-03T00:29:31.205Z,-0.70
2023-03-03T00:32:26.060Z,-0.70
2023-03-03T00:34:55.689Z,-0.80
2023-03-03T00:37:34.060Z,-0.70
2023-03-03T00:40:20.290Z,-0.80
2023-03-03T00:42:52.016Z,-0.90
2023-03-03T00:45:36.503Z,-1.00
2023-03-03T00:48:28.502Z,-1.00
2023-03-03T00:50:58.259Z,-1.00
2023-03-03T00:53:28.422Z,-1.00
2023-03-03T00:55:56.948Z,-1.00
2023-03-03T00:58:27.619Z,-1.00
2023-03-03T01:00:58.991Z,-1.00
2023-03-03T01:03:37.485Z,-1.00
2023-03-03T01:06:07.019Z,-1.00
2023-03-03T01:08:35.616Z,-1.00
2023-03-03T01:11:08.440Z,-1.10
2023-03-03T01:13:38.251Z,-1.00
2023-03-03T01:16:09.037Z,-0.90
2023-03-03T01:18:38.082Z,-0.90
2023-03-03T01:21:06.821Z,-0.80
2023-03-03T01:23:35.610Z,-0.90
2023-03-03T01:26:04.529Z,-0.80
2023-03-03T01:28:34.398Z,-0.90
2023-03-03T01:31:04.215Z,-0.90
2023-03-03T01:33:35.650Z,-0.80
2023-03-03T01:36:05.024Z,-0.80
2023-03-03T01:38:36.210Z,-0.80
2023-03-03T01:41:05.178Z,-0.80
2023-03-03T01:43:34.963Z,-0.80
2023-03-03T01:46:31.645Z,-0.70
2023-03-03T01:49:07.581Z,-0.80
2023-03-03T01:51:39.848Z,-0.70
2023-03-03T01:54:13.847Z,-0.70
2023-03-03T01:56:43.879Z,-0.70
2023-03-03T01:59:17.116Z,-0.70
2023-03-03T02:01:46.650Z,-0.70
2023-03-03T02:04:17.853Z,-0.60
2023-03-03T02:06:51.760Z,-0.60
2023-03-03T02:09:26.251Z,-0.60
2023-03-03T02:11:59.495Z,-0.50
2023-03-03T02:14:28.143Z,-0.50
2023-03-03T02:16:56.712Z,-0.40
2023-03-03T02:19:34.199Z,-0.40
2023-03-03T02:22:03.623Z,-0.40
2023-03-03T02:24:46.548Z,-0.40
2023-03-03T02:27:16.584Z,-0.40
2023-03-03T02:29:46.004Z,-0.40
2023-03-03T02:32:14.734Z,-0.40
2023-03-03T02:34:48.865Z,-0.30
2023-03-03T02:37:17.723Z,-0.30
2023-03-03T02:39:46.774Z,-0.30
2023-03-03T02:42:24.971Z,-0.30
2023-03-03T02:44:56.912Z,-0.30
2023-03-03T02:47:25.474Z,-0.20
2023-03-03T02:49:54.313Z,-0.20
2023-03-03T02:52:22.876Z,-0.20
2023-03-03T02:54:51.645Z,-0.10
2023-03-03T02:57:21.548Z,-0.10
2023-03-03T02:59:50.349Z,-0.10
2023-03-03T03:02:19.526Z,-0.20
2023-03-03T03:04:48.531Z,-0.30
2023-03-03T03:07:22.360Z,-0.30
2023-03-03T03:09:51.110Z,-0.40
2023-03-03T03:12:21.824Z,-0.40
2023-03-03T03:14:53.666Z,-0.30
2023-03-03T03:17:22.281Z,-0.30
2023-03-03T03:19:52.935Z,-0.30
2023-03-03T03:22:22.143Z,-0.30
2023-03-03T03:24:51.255Z,-0.20
2023-03-03T03:27:21.202Z,-0.20
2023-03-03T03:29:50.733Z,-0.20
2023-03-03T03:32:20.635Z,-0.20
2023-03-03T03:34:49.755Z,-0.20
2023-03-03T03:37:18.513Z,-0.20
2023-03-03T03:39:48.609Z,-0.20
2023-03-03T03:42:21.164Z,-0.20
2023-03-03T03:44:51.164Z,-0.20
2023-03-03T03:47:20.400Z,-0.20
2023-03-03T03:49:49.040Z,-0.20
2023-03-03T03:52:17.816Z,-0.30
2023-03-03T03:54:46.456Z,-0.30
2023-03-03T03:57:15.074Z,-0.30
2023-03-03T03:59:47.008Z,-0.30
2023-03-03T04:02:15.686Z,-0.30
2023-03-03T04:04:44.498Z,-0.30
2023-03-03T04:07:13.044Z,-0.30
2023-03-03T04:09:42.580Z,-0.40
2023-03-03T04:12:12.569Z,-0.30
2023-03-03T04:14:41.537Z,-0.30
2023-03-03T04:17:16.837Z,-0.30
2023-03-03T04:19:45.894Z,-0.20
2023-03-03T04:22:15.270Z,-0.20
2023-03-03T04:24:48.723Z,-0.30
2023-03-03T04:27:18.696Z,-0.30
2023-03-03T04:29:47.436Z,-0.30
2023-03-03T04:32:18.751Z,-0.30
2023-03-03T04:34:53.122Z,-0.30
2023-03-03T04:37:28.097Z,-0.30
2023-03-03T04:39:56.655Z,-0.30
2023-03-03T04:42:25.234Z,-0.30
2023-03-03T04:44:54.062Z,-0.30
2023-03-03T04:47:24.085Z,-0.30
2023-03-03T04:49:52.893Z,-0.30
2023-03-03T04:52:21.483Z,-0.20
2023-03-03T04:54:50.058Z,-0.20
2023-03-03T04:57:18.879Z,-0.30
2023-03-03T04:59:47.683Z,-0.20
2023-03-03T05:02:16.954Z,-0.20
2023-03-03T05:04:47.119Z,-0.20
2023-03-03T05:07:15.938Z,-0.20
2023-03-03T05:09:44.485Z,-0.20
2023-03-03T05:12:13.127Z,-0.20
2023-03-03T05:14:42.388Z,-0.20
2023-03-03T05:17:10.927Z,-0.20
2023-03-03T05:19:39.491Z,-0.20
2023-03-03T05:22:09.374Z,-0.10
2023-03-03T05:24:37.906Z,-0.10
2023-03-03T05:27:06.453Z,-0.10
2023-03-03T05:29:34.989Z,-0.10
2023-03-03T05:32:03.552Z,0.00
2023-03-03T05:34:32.169Z,-0.10
2023-03-03T05:37:00.745Z,-0.10
2023-03-03T05:39:30.897Z,0.00
2023-03-03T05:42:00.312Z,0.00
2023-03-03T05:44:29.231Z,-0.10
2023-03-03T05:46:59.241Z,-0.10
2023-03-03T05:49:28.200Z,-0.10
2023-03-03T05:51:56.768Z,-0.10
2023-03-03T05:54:25.513Z,-0.10
2023-03-03T05:56:57.387Z,-0.10
2023-03-03T05:59:25.979Z,-0.10
2023-03-03T06:01:54.559Z,-0.10
2023-03-03T06:04:23.129Z,0.00
2023-03-03T06:06:51.629Z,0.00
2023-03-03T06:09:20.588Z,0.00
2023-03-03T06:11:50.251Z,0.00
2023-03-03T06:14:21.131Z,0.00
2023-03-03T06:16:49.925Z,0.00
2023-03-03T06:19:18.555Z,0.00
2023-03-03T06:21:47.113Z,0.00
2023-03-03T06:24:15.729Z,0.10
2023-03-03T06:26:44.407Z,0.10
2023-03-03T06:29:15.289Z,0.10
2023-03-03T06:31:45.912Z,0.10
2023-03-03T06:50:44.648Z,0.10
2023-03-03T06:53:15.792Z,0.10
2023-03-03T06:55:45.286Z,0.10
2023-03-03T06:58:15.880Z,0.10
2023-03-03T07:00:46.412Z,0.00
2023-03-03T07:03:17.860Z,0.00
2023-03-03T07:05:47.825Z,0.10
2023-03-03T07:08:18.239Z,0.10
2023-03-03T07:10:47.749Z,0.10
2023-03-03T07:13:20.613Z,0.10
2023-03-03T07:15:50.204Z,0.10
2023-03-03T07:18:35.265Z,0.20
2023-03-03T07:21:18.616Z,0.00
2023-03-03T07:23:48.497Z,0.10
2023-03-03T07:26:20.870Z,0.10
2023-03-03T07:28:54.915Z,0.00
2023-03-03T07:31:35.145Z,0.00
2023-03-03T07:34:16.053Z,0.00
2023-03-03T07:36:46.071Z,0.00
2023-03-03T07:39:31.778Z,0.00
2023-03-03T07:42:36.193Z,0.00
2023-03-03T07:45:27.528Z,0.10
2023-03-03T07:48:04.181Z,0.20
2023-03-03T07:50:32.846Z,0.20
2023-03-03T07:53:06.509Z,0.20
2023-03-03T07:55:37.388Z,0.20
2023-03-03T07:58:22.153Z,0.30
2023-03-03T08:01:29.645Z,0.30
2023-03-03T08:03:59.156Z,0.30
2023-03-03T08:06:38.522Z,0.20
2023-03-03T08:09:41.751Z,0.30
2023-03-03T08:12:41.891Z,0.20
2023-03-03T08:15:21.147Z,0.20
2023-03-03T08:17:50.541Z,0.30
2023-03-03T08:20:47.472Z,0.30
2023-03-03T08:23:17.454Z,0.30
2023-03-03T08:25:48.485Z,0.40
2023-03-03T08:28:17.915Z,0.40
2023-03-03T08:30:46.929Z,0.40
2023-03-03T08:33:16.554Z,0.40
2023-03-03T08:35:45.235Z,0.40
2023-03-03T08:38:15.225Z,0.40
2023-03-03T08:40:44.314Z,0.40
2023-03-03T08:43:18.333Z,0.40
2023-03-03T08:45:48.079Z,0.40
2023-03-03T08:48:17.301Z,0.50
2023-03-03T08:50:46.601Z,0.50
2023-03-03T08:53:16.322Z,0.30
2023-03-03T08:55:44.916Z,0.30
2023-03-03T08:58:16.228Z,0.30
2023-03-03T09:00:46.619Z,0.30
2023-03-03T09:03:17.200Z,0.40
2023-03-03T09:05:46.302Z,0.50
2023-03-03T09:08:14.855Z,0.40
2023-03-03T09:10:43.463Z,0.40
2023-03-03T09:13:16.628Z,0.40
2023-03-03T09:15:45.252Z,0.40
2023-03-03T09:18:18.459Z,0.40
2023-03-03T09:20:47.912Z,0.40
2023-03-03T09:23:37.327Z,0.50
2023-03-03T09:26:29.763Z,0.50
2023-03-03T09:29:19.504Z,0.40
2023-03-03T09:31:50.678Z,0.40
2023-03-03T09:34:25.092Z,0.30
2023-03-03T09:36:54.697Z,0.30
2023-03-03T09:39:24.733Z,0.30
2023-03-03T09:42:14.107Z,0.30
2023-03-03T09:45:11.777Z,0.40
2023-03-03T09:47:48.292Z,0.40
2023-03-03T09:50:31.319Z,0.30
2023-03-03T09:53:18.948Z,0.30
2023-03-03T09:55:53.660Z,0.40
2023-03-03T09:58:45.956Z,0.40
2023-03-03T10:01:41.349Z,0.30
2023-03-03T10:04:41.760Z,0.30
2023-03-03T10:07:23.647Z,0.40
2023-03-03T10:10:17.478Z,0.50
2023-03-03T10:12:52.243Z,0.40
2023-03-03T10:15:36.887Z,0.50
2023-03-03T10:18:16.732Z,0.60
2023-03-03T10:20:54.247Z,0.70
2023-03-03T10:23:32.741Z,0.60
2023-03-03T10:26:12.243Z,0.70
2023-03-03T10:29:22.104Z,0.70
2023-03-03T10:32:05.223Z,0.80
2023-03-03T10:34:56.013Z,0.80
2023-03-03T10:37:32.985Z,0.70
2023-03-03T10:40:11.176Z,0.70
2023-03-03T10:42:52.824Z,0.70
2023-03-03T10:45:47.001Z,0.80
2023-03-03T10:48:28.458Z,0.80
2023-03-03T10:51:07.859Z,0.90
2023-03-03T10:53:44.064Z,1.00
2023-03-03T10:56:31.001Z,1.10
2023-03-03T10:59:14.510Z,1.10
2023-03-03T11:01:50.610Z,1.10
2023-03-03T11:04:35.228Z,1.10
2023-03-03T11:07:10.222Z,1.10
2023-03-03T11:10:06.179Z,1.10
2023-03-03T11:12:49.563Z,1.20
2023-03-03T11:15:32.982Z,1.20
2023-03-03T11:18:16.403Z,1.30
2023-03-03T11:20:51.795Z,1.30
2023-03-03T11:23:46.842Z,1.40
2023-03-03T11:26:24.180Z,1.20
2023-03-03T11:29:11.537Z,1.20
2023-03-03T11:31:46.536Z,1.20
2023-03-03T11:34:31.307Z,1.30
2023-03-03T11:37:08.876Z,1.40
2023-03-03T11:39:39.819Z,1.50
2023-03-03T11:42:18.326Z,1.50
2023-03-03T11:44:51.073Z,1.50
2023-03-03T11:47:26.684Z,1.50
2023-03-03T11:50:01.016Z,1.50
2023-03-03T11:52:37.983Z,1.50
2023-03-03T11:55:12.294Z,1.50
2023-03-03T11:57:44.700Z,1.40
2023-03-03T12:00:27.270Z,1.40
2023-03-03T12:03:22.880Z,1.40
2023-03-03T12:05:58.666Z,1.50
2023-03-03T12:08:43.206Z,1.40
2023-03-03T12:11:23.202Z,1.40
2023-03-03T12:13:59.427Z,1.40
2023-03-03T12:16:43.877Z,1.50
2023-03-03T12:19:34.676Z,1.60
2023-03-03T12:22:20.765Z,1.60
2023-03-03T12:25:10.153Z,1.60
2023-03-03T12:27:45.660Z,1.50
2023-03-03T12:30:23.270Z,1.50
2023-03-03T12:33:23.264Z,1.50
2023-03-03T12:36:05.853Z,1.40
2023-03-03T12:38:45.410Z,1.50
2023-03-03T12:41:20.383Z,1.50
2023-03-03T12:43:57.330Z,1.50
2023-03-03T12:46:36.535Z,1.60
2023-03-03T12:49:06.026Z,1.40
2023-03-03T12:51:44.844Z,1.30
2023-03-03T12:54:37.444Z,1.30
2023-03-03T12:57:19.278Z,1.40
2023-03-03T13:00:04.463Z,1.30
2023-03-03T13:02:58.610Z,1.30
2023-03-03T13:05:36.009Z,1.40
2023-03-03T13:08:29.505Z,1.30
2023-03-03T13:11:07.967Z,1.20
2023-03-03T13:13:41.245Z,1.30
2023-03-03T13:16:17.123Z,1.30
2023-03-03T13:18:56.447Z,1.30
2023-03-03T13:21:29.232Z,1.30
2023-03-03T13:24:05.675Z,1.30
2023-03-03T13:26:38.769Z,1.40
2023-03-03T13:29:16.458Z,1.40
2023-03-03T13:31:50.439Z,1.30
2023-03-03T13:34:33.584Z,1.30
2023-03-03T13:37:08.281Z,1.30
2023-03-03T13:39:41.758Z,1.20
2023-03-03T13:42:20.945Z,1.20
2023-03-03T13:44:52.079Z,1.30
2023-03-03T13:47:32.062Z,1.40
2023-03-03T13:50:20.551Z,1.30
2023-03-03T13:53:06.254Z,1.30
2023-03-03T13:55:41.772Z,1.30
2023-03-03T13:58:19.804Z,1.40
2023-03-03T14:00:59.023Z,1.40
2023-03-03T14:04:04.505Z,1.40
2023-03-03T14:06:33.113Z,1.40
2023-03-03T14:09:40.326Z,1.30
2023-03-03T14:12:15.608Z,1.20
2023-03-03T14:14:53.628Z,1.10
2023-03-03T14:17:30.890Z,1.20
2023-03-03T14:20:15.465Z,1.20
2023-03-03T14:22:48.117Z,1.10
2023-03-03T14:25:17.393Z,1.20
2023-03-03T14:28:03.116Z,1.20
2023-03-03T14:30:35.696Z,1.20
2023-03-03T14:33:17.539Z,1.10
2023-03-03T14:35:53.691Z,1.10
2023-03-03T14:38:25.725Z,1.10
2023-03-03T14:41:14.084Z,1.10
2023-03-03T14:43:46.536Z,1.20
2023-03-03T14:46:34.852Z,1.20
2023-03-03T14:49:05.189Z,1.20
2023-03-03T14:51:42.986Z,1.20
2023-03-03T14:54:22.259Z,1.20
2023-03-03T14:57:03.351Z,1.20
2023-03-03T14:59:32.553Z,1.20
2023-03-03T15:02:32.189Z,1.20
2023-03-03T15:05:19.161Z,1.20
2023-03-03T15:07:53.286Z,1.20
2023-03-03T15:10:34.401Z,1.30
2023-03-03T15:13:29.541Z,1.20
2023-03-03T15:16:10.159Z,1.20
2023-03-03T15:19:16.419Z,1.30
2023-03-03T15:21:54.272Z,1.20
2023-03-03T15:24:29.750Z,1.20
2023-03-03T15:27:02.664Z,1.10
2023-03-03T15:29:38.411Z,1.10
2023-03-03T15:32:14.885Z,1.00
2023-03-03T15:35:00.224Z,1.00
2023-03-03T15:37:42.940Z,1.00
2023-03-03T15:40:24.717Z,1.10
2023-03-03T15:42:59.333Z,1.10
2023-03-03T15:45:33.871Z,1.20
2023-03-03T15:48:20.715Z,1.20
2023-03-03T15:50:58.057Z,1.10
2023-03-03T15:53:47.664Z,1.10
2023-03-03T15:56:29.144Z,1.10
2023-03-03T15:59:22.187Z,1.10
2023-03-03T16:01:58.391Z,1.10
2023-03-03T16:04:32.693Z,1.10
2023-03-03T16:23:32.950Z,1.30
2023-03-03T16:26:19.528Z,1.30
2023-03-03T16:29:12.719Z,1.20
2023-03-03T16:31:47.290Z,1.20
2023-03-03T16:34:20.907Z,1.20
2023-03-03T16:37:01.640Z,1.20
2023-03-03T16:39:43.978Z,1.20
2023-03-03T16:42:23.771Z,1.10
2023-03-03T16:45:06.031Z,1.10
2023-03-03T16:47:50.733Z,1.20
2023-03-03T16:50:27.992Z,1.20
2023-03-03T16:53:02.653Z,1.20
2023-03-03T16:55:37.722Z,1.30
2023-03-03T16:58:19.505Z,1.30
2023-03-03T17:00:55.445Z,1.20
2023-03-03T17:03:36.333Z,1.20
2023-03-03T17:06:12.188Z,1.20
2023-03-03T17:08:56.482Z,1.10
2023-03-03T17:11:36.529Z,1.10
2023-03-03T17:14:20.116Z,1.10
2023-03-03T17:16:57.899Z,1.00
2023-03-03T17:20:00.835Z,1.10
2023-03-03T17:22:43.878Z,1.10
2023-03-03T17:25:18.968Z,1.20
2023-03-03T17:28:03.838Z,1.20
2023-03-03T17:30:41.018Z,1.20
2023-03-03T17:33:33.452Z,1.20
2023-03-03T17:36:23.474Z,1.20
2023-03-03T17:39:06.080Z,1.20
2023-03-03T17:41:40.824Z,1.20
2023-03-03T17:44:17.470Z,1.20
2023-03-03T17:46:51.581Z,1.20
2023-03-03T17:49:36.347Z,1.20
2023-03-03T17:52:23.048Z,1.30
2023-03-03T17:55:09.412Z,1.30
2023-03-03T17:57:52.498Z,1.30
2023-03-03T18:00:32.741Z,1.40
2023-03-03T18:03:37.822Z,1.30
2023-03-03T18:06:22.063Z,1.30
2023-03-03T18:09:14.879Z,1.30
2023-03-03T18:11:59.606Z,1.30
2023-03-03T18:14:51.874Z,1.30
2023-03-03T18:17:36.623Z,1.20
2023-03-03T18:20:31.899Z,1.30
2023-03-03T18:23:24.885Z,1.30
2023-03-03T18:25:57.288Z,1.30
2023-03-03T18:28:44.437Z,1.40
2023-03-03T18:31:23.165Z,1.30
2023-03-03T18:34:25.617Z,1.30
2023-03-03T18:36:55.940Z,1.20
2023-03-03T18:39:46.765Z,1.20
2023-03-03T18:42:38.210Z,1.10
2023-03-03T18:45:50.645Z,1.00
2023-03-03T18:48:20.249Z,1.00
2023-03-03T18:50:52.554Z,0.90
2023-03-03T18:53:25.256Z,0.90
2023-03-03T18:55:55.296Z,0.80
2023-03-03T18:58:40.851Z,0.80
2023-03-03T19:01:41.942Z,0.80
2023-03-03T19:04:25.529Z,0.80
2023-03-03T19:07:19.015Z,0.90
2023-03-03T19:09:52.685Z,0.90
2023-03-03T19:12:48.819Z,0.90
2023-03-03T19:15:47.507Z,0.90
2023-03-03T19:18:19.451Z,1.00
2023-03-03T19:20:53.962Z,1.00
2023-03-03T19:23:27.943Z,1.00
2023-03-03T19:26:45.306Z,1.10
2023-03-03T19:29:52.507Z,1.00
2023-03-03T19:32:36.952Z,0.80
2023-03-03T19:35:21.088Z,0.70
2023-03-03T19:38:00.100Z,0.70
2023-03-03T19:40:35.525Z,0.60
2023-03-03T19:43:15.813Z,0.70
2023-03-03T19:45:59.127Z,0.70
2023-03-03T19:48:36.567Z,0.70
2023-03-03T19:51:14.076Z,0.70
2023-03-03T19:53:53.960Z,0.80
2023-03-03T19:56:34.898Z,0.80
2023-03-03T19:59:15.068Z,0.80
2023-03-03T20:01:51.596Z,0.80
2023-03-03T20:04:45.413Z,0.70
2023-03-03T20:07:24.670Z,0.70
2023-03-03T20:10:00.199Z,0.60
2023-03-03T20:12:44.245Z,0.70
2023-03-03T20:15:18.961Z,0.70
2023-03-03T20:18:20.899Z,0.70
2023-03-03T20:20:58.172Z,0.70
2023-03-03T20:23:33.346Z,0.70
2023-03-03T20:26:08.846Z,0.70
2023-03-03T20:28:55.132Z,0.70
2023-03-03T20:31:30.755Z,0.70
2023-03-03T20:34:11.243Z,0.70
2023-03-03T20:36:50.051Z,0.60
2023-03-03T20:39:29.715Z,0.70
2023-03-03T20:42:07.852Z,0.70
2023-03-03T20:44:57.723Z,0.70
2023-03-03T20:47:38.545Z,0.70
2023-03-03T22:34:14.436Z,0.30
2023-03-03T22:36:43.007Z,0.30
2023-03-03T22:39:11.683Z,0.30
2023-03-03T22:41:40.314Z,0.30
2023-03-03T22:44:08.883Z,0.30
2023-03-03T22:46:37.571Z,0.20
